Time;durP1;ratioP1;P1;durP2;ratioP2;P2;SDS_P1;SDS_P2;PMS_P1;PMS_P2;Temp;Humidity;BMP_temperature;BMP_pressure;BME280_temperature;BME280_humidity;BME280_pressure;Samples;Min_cycle;Max_cycle;Signal;HPM_P1;HPM_P2
2022/09/03 00:02:06;;;;;;;1.75;0.60;;;23.40;51.40;;;;;;4460375;32;20212;-73
2022/09/03 00:05:06;;;;;;;1.58;0.70;;;23.30;51.40;;;;;;4460394;32;20155;-72
2022/09/03 00:08:10;;;;;;;2.13;0.73;;;23.30;51.30;;;;;;4425530;32;20128;-73
2022/09/03 00:10:50;;;;;;;1.08;0.60;;;23.30;51.30;;;;;;4460120;32;20097;-73
2022/09/03 00:13:24;;;;;;;5.30;0.80;;;23.30;51.40;;;;;;4460564;32;20066;-72
2022/09/03 00:15:54;;;;;;;1.00;0.60;;;23.30;51.30;;;;;;4460142;32;20105;-72
2022/09/03 00:18:27;;;;;;;1.27;0.60;;;23.30;51.30;;;;;;4460259;32;20577;-73
2022/09/03 00:20:58;;;;;;;2.28;0.70;;;23.30;51.30;;;;;;4460608;32;20070;-73
2022/09/03 00:23:29;;;;;;;1.10;0.60;;;23.30;51.40;;;;;;4460094;32;20078;-72
2022/09/03 00:25:55;;;;;;;1.88;0.80;;;23.30;51.30;;;;;;4463051;32;20070;-72
2022/09/03 00:28:46;;;;;;;2.03;0.68;;;23.30;51.40;;;;;;4463146;32;20077;-72
2022/09/03 00:31:35;;;;;;;1.27;0.70;;;23.30;51.40;;;;;;4455972;32;20070;-72
2022/09/03 00:34:25;;;;;;;1.38;0.70;;;23.30;51.40;;;;;;4463382;32;20151;-73
2022/09/03 00:36:52;;;;;;;1.42;0.50;;;23.30;51.50;;;;;;4455202;32;20082;-72
2022/09/03 00:39:21;;;;;;;1.77;0.80;;;23.30;51.50;;;;;;4462734;32;20519;-72
2022/09/03 00:42:24;;;;;;;2.35;0.90;;;23.30;51.50;;;;;;4462994;32;20266;-72
2022/09/03 00:45:06;;;;;;;1.23;0.80;;;23.30;51.50;;;;;;4463071;32;20606;-72
2022/09/03 00:47:40;;;;;;;1.02;0.60;;;23.30;51.50;;;;;;4462991;32;20499;-72
2022/09/03 00:50:14;;;;;;;0.98;0.43;;;23.30;51.50;;;;;;4463004;32;20066;-73
2022/09/03 00:53:02;;;;;;;1.65;0.60;;;23.30;51.40;;;;;;4463134;32;20397;-72
2022/09/03 00:55:46;;;;;;;2.97;0.47;;;23.30;51.50;;;;;;4462789;32;20097;-72
2022/09/03 00:58:46;;;;;;;1.45;0.60;;;23.30;51.50;;;;;;4462771;32;20074;-73
2022/09/03 01:01:30;;;;;;;2.72;0.57;;;23.30;51.50;;;;;;4448547;32;20131;-72
2022/09/03 01:04:16;;;;;;;1.20;0.60;;;23.30;51.50;;;;;;4463016;32;20120;-72
2022/09/03 01:07:13;;;;;;;1.25;0.60;;;23.20;51.40;;;;;;4462582;32;20090;-72
2022/09/03 01:10:03;;;;;;;1.20;0.60;;;23.20;51.40;;;;;;4462966;32;20074;-72
2022/09/03 01:12:31;;;;;;;1.77;0.65;;;23.20;51.40;;;;;;4448279;32;20493;-72
2022/09/03 01:14:57;;;;;;;1.20;0.60;;;23.20;51.40;;;;;;4462501;32;20507;-73
2022/09/03 01:17:50;;;;;;;1.17;0.70;;;23.20;51.40;;;;;;4462490;32;20085;-73
2022/09/03 01:20:31;;;;;;;1.30;0.60;;;23.20;51.40;;;;;;4448377;32;20163;-72
2022/09/03 01:23:23;;;;;;;1.95;0.68;;;23.20;51.40;;;;;;4448563;32;20058;-73
2022/09/03 01:26:23;;;;;;;0.80;0.52;;;23.20;51.40;;;;;;4462242;32;20565;-72
2022/09/03 01:28:53;;;;;;;1.30;0.70;;;23.20;51.40;;;;;;4448475;32;20129;-72
2022/09/03 01:31:37;;;;;;;1.13;0.50;;;23.20;51.40;;;;;;4462876;32;20104;-73
2022/09/03 01:34:24;;;;;;;0.73;0.47;;;23.20;51.50;;;;;;4462070;32;20182;-73
2022/09/03 01:37:13;;;;;;;0.60;0.45;;;23.20;51.50;;;;;;4447874;32;20199;-72
2022/09/03 01:40:10;;;;;;;2.80;0.47;;;23.20;51.50;;;;;;4462216;32;20167;-72
2022/09/03 01:43:05;;;;;;;0.90;0.60;;;23.20;51.40;;;;;;4461977;32;20499;-73
2022/09/03 01:45:43;;;;;;;2.25;0.82;;;23.20;51.50;;;;;;4447921;32;20100;-73
2022/09/03 01:48:20;;;;;;;1.30;0.57;;;23.20;51.50;;;;;;4462201;32;20519;-73
2022/09/03 01:51:04;;;;;;;0.73;0.40;;;23.10;51.40;;;;;;4461866;32;20065;-73
2022/09/03 01:54:00;;;;;;;1.25;0.73;;;23.10;51.30;;;;;;4462187;32;20262;-72
2022/09/03 01:56:34;;;;;;;2.28;0.63;;;23.10;51.50;;;;;;4461999;32;20089;-72
2022/09/03 01:59:22;;;;;;;0.73;0.50;;;23.10;51.50;;;;;;4461593;32;20486;-73
2022/09/03 02:02:27;;;;;;;1.80;0.80;;;23.10;51.50;;;;;;4461818;32;20090;-72
2022/09/03 02:05:10;;;;;;;1.25;0.60;;;23.10;51.50;;;;;;4398305;32;20082;-72
2022/09/03 02:07:42;;;;;;;1.70;0.75;;;23.10;51.50;;;;;;4385624;32;20063;-73
2022/09/03 02:10:13;;;;;;;1.63;0.68;;;23.10;51.50;;;;;;4438559;32;20066;-73
2022/09/03 02:12:42;;;;;;;0.98;0.60;;;23.10;51.60;;;;;;4461787;32;20078;-72
2022/09/03 02:15:16;;;;;;;2.78;0.68;;;23.10;51.50;;;;;;4461605;32;20081;-73
2022/09/03 02:17:42;;;;;;;;;;;23.10;51.50;;;;;;4462587;32;20175;-73
2022/09/03 02:20:12;;;;;;;1.75;0.80;;;23.10;51.60;;;;;;4461828;32;19981;-73
2022/09/03 02:22:39;;;;;;;1.73;0.60;;;23.10;51.60;;;;;;4461493;32;20511;-72
2022/09/03 02:25:06;;;;;;;1.13;0.50;;;23.10;51.60;;;;;;4447504;32;20530;-72
2022/09/03 02:27:32;;;;;;;0.98;0.50;;;23.10;51.60;;;;;;4461023;32;20534;-72
2022/09/03 02:29:59;;;;;;;1.00;0.57;;;23.10;51.60;;;;;;4461418;32;20073;-72
2022/09/03 02:32:25;;;;;;;1.33;0.50;;;23.10;51.60;;;;;;4447481;32;20070;-72
2022/09/03 02:34:51;;;;;;;0.77;0.43;;;23.10;51.70;;;;;;4461258;32;20077;-72
2022/09/03 02:37:18;;;;;;;1.02;0.45;;;23.10;51.70;;;;;;4461873;32;20474;-72
2022/09/03 02:39:44;;;;;;;1.23;0.57;;;23.10;51.70;;;;;;4447428;32;20077;-72
2022/09/03 02:42:12;;;;;;;0.95;0.55;;;23.10;51.70;;;;;;4447233;32;20211;-72
2022/09/03 02:44:43;;;;;;;1.75;0.50;;;23.00;51.60;;;;;;4461157;32;20132;-72
2022/09/03 02:47:10;;;;;;;1.55;0.50;;;23.10;51.70;;;;;;4460866;32;20126;-72
2022/09/03 02:49:37;;;;;;;1.60;0.52;;;23.00;51.70;;;;;;4461237;32;20081;-72
2022/09/03 02:52:10;;;;;;;0.70;0.50;;;23.00;51.70;;;;;;4461089;32;20073;-72
2022/09/03 02:54:38;;;;;;;0.75;0.45;;;23.00;51.70;;;;;;4461108;32;20136;-72
2022/09/03 02:57:06;;;;;;;1.25;0.60;;;23.00;51.70;;;;;;4447106;32;20533;-73
2022/09/03 02:59:32;;;;;;;1.58;0.50;;;23.00;51.70;;;;;;4461221;32;20089;-73
2022/09/03 03:01:58;;;;;;;2.40;0.57;;;23.00;51.70;;;;;;4447024;32;20203;-73
2022/09/03 03:04:23;;;;;;;1.05;0.57;;;23.10;51.80;;;;;;4446735;32;20100;-72
2022/09/03 03:06:49;;;;;;;0.93;0.40;;;23.00;51.80;;;;;;4460812;32;20175;-72
2022/09/03 03:09:16;;;;;;;0.65;0.45;;;23.00;51.80;;;;;;4460915;32;20538;-73
2022/09/03 03:11:43;;;;;;;1.02;0.50;;;23.00;51.80;;;;;;4461122;32;20494;-73
2022/09/03 03:14:09;;;;;;;1.20;0.40;;;23.00;51.80;;;;;;4461078;32;20410;-72
2022/09/03 03:16:35;;;;;;;0.70;0.55;;;23.00;51.80;;;;;;4446597;32;20143;-72
2022/09/03 03:19:01;;;;;;;0.60;0.40;;;23.00;51.80;;;;;;4460969;32;20680;-72
2022/09/03 03:21:27;;;;;;;0.88;0.50;;;22.90;51.80;;;;;;4460816;32;20101;-72
2022/09/03 03:23:53;;;;;;;0.93;0.50;;;22.90;51.80;;;;;;4461001;32;20057;-72
2022/09/03 03:26:20;;;;;;;0.82;0.40;;;22.90;51.80;;;;;;4460637;32;20100;-73
2022/09/03 03:28:49;;;;;;;1.10;0.50;;;23.00;52.00;;;;;;4446574;32;20089;-72
2022/09/03 03:31:18;;;;;;;0.90;0.40;;;22.90;51.90;;;;;;4460847;32;20086;-73
2022/09/03 03:33:49;;;;;;;1.40;0.55;;;22.90;51.80;;;;;;4460522;32;20095;-72
2022/09/03 03:36:15;;;;;;;0.90;0.43;;;22.90;51.80;;;;;;4460947;32;20395;-73
2022/09/03 03:38:43;;;;;;;0.73;0.47;;;22.90;51.90;;;;;;4460769;32;20471;-72
2022/09/03 03:41:15;;;;;;;0.70;0.50;;;22.90;51.90;;;;;;4460531;32;20298;-72
2022/09/03 03:43:42;;;;;;;0.90;0.57;;;22.90;51.90;;;;;;4460455;32;20065;-72
2022/09/03 03:46:09;;;;;;;1.02;0.50;;;22.90;51.90;;;;;;4460001;32;20100;-72
2022/09/03 03:48:37;;;;;;;1.10;0.50;;;22.90;51.90;;;;;;4460234;32;20078;-72
2022/09/03 03:51:06;;;;;;;1.20;0.70;;;22.90;51.90;;;;;;4460457;32;20078;-72
2022/09/03 03:53:34;;;;;;;0.68;0.32;;;22.90;51.90;;;;;;4460423;32;20086;-72
2022/09/03 03:56:02;;;;;;;0.52;0.30;;;22.90;51.90;;;;;;4460657;32;20618;-72
2022/09/03 03:58:30;;;;;;;0.95;0.57;;;22.90;52.00;;;;;;4461350;32;20526;-72
2022/09/03 04:01:07;;;;;;;1.63;0.57;;;22.90;52.00;;;;;;4463648;32;20094;-72
2022/09/03 04:03:33;;;;;;;0.80;0.50;;;22.90;51.90;;;;;;4449437;32;20074;-72
2022/09/03 04:06:00;;;;;;;0.80;0.65;;;22.90;52.00;;;;;;4463506;32;20082;-73
2022/09/03 04:08:30;;;;;;;1.20;0.50;;;22.90;52.00;;;;;;4463451;32;20097;-73
2022/09/03 04:11:00;;;;;;;0.63;0.30;;;22.90;52.10;;;;;;4463488;32;20477;-72
2022/09/03 04:13:30;;;;;;;0.75;0.32;;;22.90;52.10;;;;;;4463484;32;20645;-73
2022/09/03 04:16:04;;;;;;;0.60;0.50;;;22.90;52.10;;;;;;4449163;32;20543;-73
2022/09/03 04:18:31;;;;;;;0.80;0.30;;;22.90;52.10;;;;;;4463547;32;20094;-73
2022/09/03 04:21:11;;;;;;;0.75;0.60;;;22.80;52.00;;;;;;4463319;32;20078;-73
2022/09/03 04:23:39;;;;;;;1.33;0.40;;;22.80;52.00;;;;;;4463126;32;20085;-72
2022/09/03 04:26:06;;;;;;;0.43;0.43;;;22.80;52.00;;;;;;4463886;32;20521;-72
2022/09/03 04:28:32;;;;;;;0.60;0.40;;;22.80;52.10;;;;;;4463130;32;20105;-72
2022/09/03 04:31:06;;;;;;;0.60;0.40;;;22.80;52.10;;;;;;4463395;32;20167;-72
2022/09/03 04:33:32;;;;;;;0.73;0.47;;;22.80;52.10;;;;;;4463288;32;20168;-72
2022/09/03 04:36:16;;;;;;;0.95;0.45;;;22.80;52.00;;;;;;4463081;32;20078;-73
2022/09/03 04:38:44;;;;;;;0.57;0.30;;;22.80;52.00;;;;;;4463071;32;20074;-72
2022/09/03 04:41:12;;;;;;;1.15;0.47;;;22.80;52.10;;;;;;4449162;32;20431;-73
2022/09/03 04:43:41;;;;;;;0.73;0.50;;;22.80;52.10;;;;;;4463161;32;20085;-73
2022/09/03 04:46:07;;;;;;;0.93;0.40;;;22.80;52.10;;;;;;4462622;32;20103;-72
2022/09/03 04:48:35;;;;;;;1.13;0.38;;;22.80;52.10;;;;;;4448693;32;20495;-72
2022/09/03 04:51:07;;;;;;;0.85;0.57;;;22.80;53.10;;;;;;4462851;32;20434;-73
2022/09/03 04:53:35;;;;;;;1.15;0.50;;;22.80;52.10;;;;;;4463183;32;20066;-73
2022/09/03 04:56:01;;;;;;;0.85;0.45;;;22.80;52.10;;;;;;4462804;32;20124;-73
2022/09/03 04:58:27;;;;;;;0.68;0.40;;;22.80;52.10;;;;;;4462711;32;20092;-72
2022/09/03 05:00:53;;;;;;;1.35;0.52;;;22.80;52.10;;;;;;4448792;32;20121;-72
2022/09/03 05:03:20;;;;;;;0.85;0.47;;;22.80;52.10;;;;;;4462734;32;20070;-72
2022/09/03 05:05:56;;;;;;;1.17;0.47;;;22.80;52.10;;;;;;4462338;32;20089;-72
2022/09/03 05:08:22;;;;;;;0.95;0.30;;;22.80;52.10;;;;;;4462864;32;20498;-72
2022/09/03 05:10:48;;;;;;;0.75;0.40;;;22.70;52.10;;;;;;4462094;32;20416;-72
2022/09/03 05:13:14;;;;;;;0.70;0.43;;;22.70;52.10;;;;;;4448628;32;20096;-73
2022/09/03 05:15:43;;;;;;;0.90;0.50;;;22.70;52.10;;;;;;4462618;32;20117;-72
2022/09/03 05:18:08;;;;;;;0.73;0.50;;;22.70;52.20;;;;;;4448500;32;20163;-72
2022/09/03 05:20:34;;;;;;;1.27;0.55;;;22.70;52.20;;;;;;4462440;32;20091;-72
2022/09/03 05:23:02;;;;;;;0.60;0.40;;;22.70;52.20;;;;;;4462174;32;20232;-72
2022/09/03 05:25:31;;;;;;;1.30;0.57;;;22.70;52.20;;;;;;4448341;32;20434;-72
2022/09/03 05:27:57;;;;;;;1.15;0.40;;;22.70;52.20;;;;;;4462409;32;20170;-73
2022/09/03 05:30:24;;;;;;;0.70;0.50;;;22.70;52.20;;;;;;4462383;32;20066;-72
2022/09/03 05:32:51;;;;;;;0.73;0.40;;;22.70;52.20;;;;;;4462216;32;20133;-72
2022/09/03 05:35:17;;;;;;;0.60;0.40;;;22.70;52.20;;;;;;4462275;32;20187;-72
2022/09/03 05:37:43;;;;;;;0.50;0.40;;;22.70;52.20;;;;;;4462393;32;20137;-72
2022/09/03 05:40:10;;;;;;;1.08;0.50;;;22.70;52.20;;;;;;4462176;32;20084;-72
2022/09/03 05:42:39;;;;;;;0.75;0.40;;;22.70;52.30;;;;;;4461851;32;20084;-72
2022/09/03 05:45:09;;;;;;;0.70;0.60;;;22.70;52.30;;;;;;4462101;32;20082;-72
2022/09/03 05:47:38;;;;;;;0.43;0.30;;;22.70;52.30;;;;;;4448624;32;20069;-72
2022/09/03 05:50:09;;;;;;;1.00;0.60;;;22.70;52.30;;;;;;4448173;32;20081;-72
2022/09/03 05:52:36;;;;;;;0.47;0.45;;;22.70;52.30;;;;;;4462017;32;20092;-72
2022/09/03 05:55:03;;;;;;;0.77;0.43;;;22.70;52.30;;;;;;4461779;32;20123;-72
2022/09/03 05:57:29;;;;;;;2.03;0.50;;;22.60;52.20;;;;;;4447939;32;20125;-72
2022/09/03 05:59:55;;;;;;;0.55;0.40;;;22.70;52.30;;;;;;4462134;32;20236;-72
2022/09/03 06:02:22;;;;;;;0.68;0.50;;;22.70;52.30;;;;;;4461814;32;20226;-72
2022/09/03 06:04:48;;;;;;;0.50;0.50;;;22.70;52.30;;;;;;4461963;32;20090;-73
2022/09/03 06:07:14;;;;;;;0.70;0.40;;;22.60;52.30;;;;;;4461667;32;20155;-73
2022/09/03 06:09:40;;;;;;;0.57;0.30;;;22.60;52.30;;;;;;4447785;32;20373;-73
2022/09/03 06:12:06;;;;;;;0.35;0.35;;;22.60;52.30;;;;;;4461440;32;20074;-72
2022/09/03 06:14:32;;;;;;;1.00;0.40;;;22.70;52.40;;;;;;4461884;32;20546;-72
2022/09/03 06:16:58;;;;;;;0.80;0.40;;;22.70;52.40;;;;;;4461693;32;20085;-73
2022/09/03 06:19:24;;;;;;;0.68;0.50;;;22.70;52.40;;;;;;4461315;32;20077;-72
2022/09/03 06:21:50;;;;;;;0.77;0.50;;;22.70;52.40;;;;;;4461198;32;20078;-72
2022/09/03 06:24:18;;;;;;;0.63;0.57;;;22.70;52.40;;;;;;4447202;32;20163;-72
2022/09/03 06:26:45;;;;;;;0.65;0.38;;;22.70;52.50;;;;;;4461197;32;20082;-72
2022/09/03 06:29:11;;;;;;;0.70;0.40;;;22.70;52.50;;;;;;4461074;32;20574;-72
2022/09/03 06:31:38;;;;;;;0.85;0.50;;;22.70;52.50;;;;;;4461620;32;20132;-72
2022/09/03 06:34:04;;;;;;;0.60;0.40;;;22.70;52.50;;;;;;4461136;32;20419;-73
2022/09/03 06:36:31;;;;;;;1.65;0.45;;;22.70;52.50;;;;;;4461656;32;20078;-73
2022/09/03 06:38:57;;;;;;;0.98;0.50;;;22.70;52.50;;;;;;4461391;32;20074;-72
2022/09/03 06:41:26;;;;;;;0.70;0.52;;;22.70;52.50;;;;;;4461492;32;20065;-73
2022/09/03 06:44:01;;;;;;;0.50;0.30;;;22.80;52.60;;;;;;4461528;32;20251;-72
2022/09/03 06:46:30;;;;;;;0.50;0.40;;;22.80;52.50;;;;;;4461489;32;20159;-72
2022/09/03 06:48:56;;;;;;;7.38;0.75;;;22.80;52.50;;;;;;4447275;32;20080;-73
2022/09/03 06:51:25;;;;;;;0.95;0.40;;;22.80;52.60;;;;;;4447130;32;20077;-74
2022/09/03 06:53:53;;;;;;;4.70;0.80;;;22.80;52.50;;;;;;4460879;32;20137;-74
2022/09/03 06:56:25;;;;;;;1.42;0.60;;;22.80;52.40;;;;;;4447136;32;20294;-73
2022/09/03 06:58:55;;;;;;;0.90;0.60;;;22.80;52.30;;;;;;4461078;32;20159;-74
2022/09/03 07:01:24;;;;;;;2.40;0.70;;;22.90;52.00;;;;;;4461206;32;20114;-74
2022/09/03 07:03:55;;;;;;;2.15;0.68;;;22.90;51.70;;;;;;4461031;32;20082;-74
2022/09/03 07:06:23;;;;;;;2.28;0.50;;;22.90;51.40;;;;;;4446676;32;20109;-75
2022/09/03 07:08:48;;;;;;;2.13;0.63;;;22.90;51.40;;;;;;4446717;32;20074;-73
2022/09/03 07:11:18;;;;;;;1.90;0.60;;;22.90;51.30;;;;;;4460936;32;20100;-74
2022/09/03 07:13:49;;;;;;;1.42;1.00;;;23.00;51.20;;;;;;4461069;32;20108;-73
2022/09/03 07:16:20;;;;;;;1.52;1.02;;;23.00;52.00;;;;;;4460864;32;20093;-74
2022/09/03 07:18:46;;;;;;;2.42;0.73;;;23.00;51.00;;;;;;4446925;32;20212;-74
2022/09/03 07:21:18;;;;;;;4.25;0.73;;;23.00;50.90;;;;;;4460492;32;20220;-74
2022/09/03 07:23:44;;;;;;;1.75;0.75;;;23.00;51.60;;;;;;4460801;32;20083;-74
2022/09/03 07:26:13;;;;;;;2.67;0.80;;;23.00;50.50;;;;;;4460867;32;20073;-74
2022/09/03 07:28:40;;;;;;;3.33;1.10;;;23.00;50.40;;;;;;4461266;32;20088;-74
2022/09/03 07:31:13;;;;;;;5.60;1.02;;;23.10;50.40;;;;;;4446608;32;20504;-74
2022/09/03 07:33:40;;;;;;;1.50;0.60;;;23.10;50.20;;;;;;4461082;32;20092;-74
2022/09/03 07:36:13;;;;;;;4.85;1.10;;;23.10;50.30;;;;;;4460358;32;20124;-71
2022/09/03 07:38:39;;;;;;;2.78;1.02;;;23.10;50.30;;;;;;4460805;32;20208;-74
2022/09/03 07:41:08;;;;;;;1.73;0.70;;;23.10;50.40;;;;;;4460304;32;20181;-73
2022/09/03 07:43:43;;;;;;;2.60;0.80;;;23.10;50.40;;;;;;4460210;32;20096;-73
2022/09/03 07:46:11;;;;;;;0.98;0.65;;;23.10;50.50;;;;;;4460465;32;20081;-74
2022/09/03 07:48:42;;;;;;;4.05;0.80;;;23.10;50.60;;;;;;4460575;32;20070;-73
2022/09/03 07:51:08;;;;;;;1.88;0.85;;;23.10;50.70;;;;;;4460663;32;20082;-73
2022/09/03 07:53:34;;;;;;;2.42;0.80;;;23.20;50.80;;;;;;4446511;32;20096;-73
2022/09/03 07:56:07;;;;;;;2.42;0.98;;;23.20;50.90;;;;;;4460519;32;20279;-74
2022/09/03 07:58:34;;;;;;;1.67;0.90;;;23.20;51.10;;;;;;4460680;32;20171;-74
2022/09/03 08:01:05;;;;;;;2.40;0.70;;;23.20;51.10;;;;;;4460498;32;20101;-74
2022/09/03 08:03:31;;;;;;;3.15;0.70;;;23.20;51.20;;;;;;4460374;32;20223;-74
2022/09/03 08:06:01;;;;;;;2.22;0.63;;;23.20;51.30;;;;;;4460315;32;20078;-74
2022/09/03 08:08:27;;;;;;;1.65;0.65;;;23.20;51.30;;;;;;4460575;32;20491;-74
2022/09/03 08:10:53;;;;;;;1.20;0.80;;;23.20;51.30;;;;;;4446632;32;20074;-74
2022/09/03 08:13:19;;;;;;;2.85;0.82;;;23.20;51.30;;;;;;4460664;32;20076;-74
2022/09/03 08:15:55;;;;;;;2.55;0.80;;;23.30;51.40;;;;;;4460602;32;20054;-73
2022/09/03 08:18:22;;;;;;;0.85;0.63;;;23.30;51.50;;;;;;4460368;32;20520;-74
2022/09/03 08:20:48;;;;;;;1.58;0.60;;;23.30;51.50;;;;;;4446118;32;20082;-73
2022/09/03 08:23:15;;;;;;;2.08;0.57;;;23.30;51.50;;;;;;4460275;32;20097;-74
2022/09/03 08:25:40;;;;;;;1.48;1.00;;;23.30;51.50;;;;;;4460203;32;20195;-74
2022/09/03 08:28:06;;;;;;;2.33;0.88;;;23.30;51.30;;;;;;4460051;32;20400;-73
2022/09/03 08:30:33;;;;;;;1.25;0.57;;;23.30;52.20;;;;;;4460170;32;20125;-73
2022/09/03 08:33:03;;;;;;;3.03;0.70;;;23.30;51.10;;;;;;4446549;32;20065;-73
2022/09/03 08:35:30;;;;;;;4.05;0.80;;;23.40;50.70;;;;;;4460712;32;20299;-74
2022/09/03 08:37:56;;;;;;;1.60;0.70;;;23.40;50.20;;;;;;4446439;32;20605;-74
2022/09/03 08:40:23;;;;;;;1.23;0.80;;;23.40;50.00;;;;;;4446241;32;20070;-74
2022/09/03 08:43:18;;;;;;;3.58;0.60;;;23.40;49.80;;;;;;4446190;32;20069;-73
2022/09/03 08:45:44;;;;;;;1.13;0.60;;;23.50;49.50;;;;;;4461006;32;20096;-74
2022/09/03 08:48:17;;;;;;;2.63;0.63;;;23.50;49.70;;;;;;4449080;32;20074;-74
2022/09/03 08:50:48;;;;;;;2.78;0.80;;;23.50;49.30;;;;;;4463031;32;20089;-73
2022/09/03 08:53:28;;;;;;;0.63;0.50;;;23.50;49.20;;;;;;4463018;32;20082;-74
2022/09/03 08:56:00;;;;;;;2.60;0.85;;;23.50;49.00;;;;;;4462680;32;20646;-73
2022/09/03 08:58:31;;;;;;;3.17;0.80;;;23.50;49.00;;;;;;4463224;32;20074;-73
2022/09/03 09:01:19;;;;;;;2.90;0.60;;;23.60;48.60;;;;;;4449299;32;20172;-73
2022/09/03 09:04:22;;;;;;;4.03;0.73;;;23.60;48.20;;;;;;4462527;32;20526;-74
2022/09/03 09:06:48;;;;;;;3.97;0.80;;;23.60;47.60;;;;;;4462650;32;20078;-74
2022/09/03 09:09:23;;;;;;;1.65;1.00;;;23.50;47.70;;;;;;4448668;32;20077;-74
2022/09/03 09:12:01;;;;;;;2.60;0.75;;;23.50;47.50;;;;;;4462934;32;20089;-74
2022/09/03 09:15:03;;;;;;;4.03;0.70;;;23.60;46.40;;;;;;4462320;32;20088;-72
2022/09/03 09:17:47;;;;;;;3.08;0.90;;;23.60;46.30;;;;;;4462693;32;20062;-74
2022/09/03 09:20:28;;;;;;;6.32;0.88;;;23.60;46.20;;;;;;4462504;32;20069;-73
2022/09/03 09:23:05;;;;;;;3.45;0.80;;;23.60;46.10;;;;;;4462303;32;20077;-74
2022/09/03 09:25:38;;;;;;;3.92;0.80;;;23.60;46.30;;;;;;4462261;32;20073;-73
2022/09/03 09:28:20;;;;;;;2.55;0.90;;;23.60;46.40;;;;;;4462331;32;20081;-73
2022/09/03 09:30:48;;;;;;;1.55;0.90;;;23.60;46.60;;;;;;4462198;32;20084;-74
2022/09/03 09:33:15;;;;;;;2.28;0.90;;;23.60;46.60;;;;;;4462193;32;20389;-72
2022/09/03 09:35:42;;;;;;;2.35;0.70;;;23.60;46.20;;;;;;4462025;32;20084;-72
2022/09/03 09:38:09;;;;;;;7.25;1.08;;;23.60;46.20;;;;;;4462168;32;20081;-72
2022/09/03 09:40:42;;;;;;;4.53;0.90;;;23.60;46.20;;;;;;4462606;32;20581;-72
2022/09/03 09:43:12;;;;;;;2.53;0.90;;;23.70;46.20;;;;;;4462420;32;20100;-72
2022/09/03 09:45:40;;;;;;;2.30;0.85;;;23.60;46.20;;;;;;4461771;32;20084;-73
2022/09/03 09:48:12;;;;;;;6.65;0.90;;;23.60;46.10;;;;;;4461941;32;20515;-73
2022/09/03 09:50:37;;;;;;;3.38;0.80;;;23.70;46.10;;;;;;4448198;32;20216;-72
2022/09/03 09:53:13;;;;;;;2.60;0.93;;;23.70;47.10;;;;;;4447814;32;20068;-73
2022/09/03 09:55:51;;;;;;;2.08;0.90;;;23.80;46.30;;;;;;4448077;32;20093;-73
2022/09/03 09:58:19;;;;;;;3.42;0.95;;;23.80;46.30;;;;;;4461736;32;20078;-73
2022/09/03 10:01:11;;;;;;;2.42;0.80;;;23.80;46.40;;;;;;4461859;32;20092;-73
2022/09/03 10:03:56;;;;;;;2.95;0.70;;;23.80;46.40;;;;;;4461994;32;20092;-73
2022/09/03 10:09:17;;;;;;;4.15;0.80;;;23.90;46.20;;;;;;4461809;32;20070;-73
2022/09/03 10:11:50;;;;;;;1.77;0.73;;;23.90;46.40;;;;;;4461750;32;20078;-73
2022/09/03 10:14:31;;;;;;;1.02;0.55;;;23.90;46.40;;;;;;4461531;32;20539;-72
2022/09/03 10:17:09;;;;;;;2.10;0.88;;;23.90;46.40;;;;;;4448481;32;20085;-74
2022/09/03 10:20:26;;;;;;;1.80;0.70;;;23.90;46.40;;;;;;4461515;32;20074;-73
2022/09/03 10:23:02;;;;;;;2.70;0.85;;;24.00;46.30;;;;;;4461094;32;20202;-73
2022/09/03 10:26:08;;;;;;;3.25;0.68;;;24.00;46.20;;;;;;4461166;32;20077;-74
2022/09/03 10:28:41;;;;;;;1.38;0.90;;;24.00;46.00;;;;;;4446957;32;20081;-69
2022/09/03 10:31:27;;;;;;;4.50;0.80;;;24.00;46.00;;;;;;4461292;32;20546;-69
2022/09/03 10:33:54;;;;;;;2.25;0.63;;;24.00;45.90;;;;;;4461297;32;20127;-77
2022/09/03 10:36:23;;;;;;;1.27;0.60;;;24.00;45.90;;;;;;4461243;32;20615;-75
2022/09/03 10:39:03;;;;;;;0.98;0.60;;;24.00;45.70;;;;;;4447278;32;20085;-74
2022/09/03 10:41:54;;;;;;;5.90;1.00;;;24.00;45.60;;;;;;4461482;32;20515;-75
2022/09/03 10:44:34;;;;;;;1.55;0.80;;;24.00;45.60;;;;;;4461866;32;20149;-74
2022/09/03 10:47:28;;;;;;;3.25;0.90;;;24.10;45.60;;;;;;4447262;32;20415;-74
2022/09/03 10:50:16;;;;;;;4.60;0.63;;;24.10;45.50;;;;;;4461032;32;20179;-75
2022/09/03 10:52:51;;;;;;;2.13;0.82;;;24.10;45.50;;;;;;4462961;32;20254;-75
2022/09/03 10:55:35;;;;;;;2.47;0.77;;;24.10;45.40;;;;;;4460938;32;20092;-75
2022/09/03 10:58:30;;;;;;;1.65;0.82;;;24.10;45.30;;;;;;4460850;32;20555;-72
2022/09/03 11:01:06;;;;;;;2.38;0.88;;;24.10;45.50;;;;;;4461088;32;20144;-73
2022/09/03 11:03:38;;;;;;;6.05;1.10;;;24.10;45.40;;;;;;4460832;32;20768;-74
2022/09/03 11:06:08;;;;;;;3.70;1.05;;;24.10;45.40;;;;;;4460523;32;20086;-75
2022/09/03 11:08:46;;;;;;;3.72;1.10;;;24.10;45.10;;;;;;4460656;32;20096;-75
2022/09/03 11:11:35;;;;;;;4.57;1.13;;;24.10;44.80;;;;;;4460980;32;20538;-76
2022/09/03 11:14:09;;;;;;;4.45;0.80;;;24.10;44.70;;;;;;4460727;32;20537;-75
2022/09/03 11:16:51;;;;;;;2.30;1.00;;;24.10;44.70;;;;;;4460504;32;20248;-75
2022/09/03 11:19:21;;;;;;;2.13;0.90;;;24.10;44.60;;;;;;4460935;32;20077;-75
2022/09/03 11:21:49;;;;;;;3.83;0.93;;;24.10;44.60;;;;;;4460668;32;20085;-75
2022/09/03 11:24:29;;;;;;;2.55;1.00;;;24.10;44.30;;;;;;4460303;32;20210;-74
2022/09/03 11:27:21;;;;;;;3.47;0.80;;;24.20;44.00;;;;;;4446338;32;20270;-73
2022/09/03 11:30:21;;;;;;;5.63;0.80;;;24.10;43.90;;;;;;4460749;32;20077;-73
2022/09/03 11:32:55;;;;;;;2.45;1.00;;;24.20;43.60;;;;;;4446582;32;20074;-73
2022/09/03 11:35:32;;;;;;;2.33;0.88;;;24.20;43.70;;;;;;4460564;32;20098;-73
2022/09/03 11:38:05;;;;;;;4.63;1.00;;;24.20;43.40;;;;;;4460943;32;20095;-73
2022/09/03 11:41:11;;;;;;;4.30;0.80;;;24.20;43.20;;;;;;4460539;32;20100;-74
2022/09/03 11:43:38;;;;;;;3.40;0.80;;;24.20;43.10;;;;;;4460633;32;20541;-75
2022/09/03 11:46:25;;;;;;;1.60;0.80;;;24.20;43.20;;;;;;4460123;32;20512;-74
2022/09/03 11:48:57;;;;;;;4.75;1.08;;;24.20;43.00;;;;;;4446092;32;20065;-75
2022/09/03 11:51:25;;;;;;;4.95;0.80;;;24.20;43.20;;;;;;4460249;32;20117;-74
2022/09/03 11:54:22;;;;;;;4.32;0.95;;;24.20;43.20;;;;;;4459948;32;20295;-74
2022/09/03 11:56:49;;;;;;;4.25;0.90;;;24.20;42.70;;;;;;4446469;32;20062;-74
2022/09/03 11:59:23;;;;;;;1.58;0.77;;;24.20;42.90;;;;;;4460162;32;20229;-74
2022/09/03 12:01:52;;;;;;;2.40;0.77;;;24.30;42.70;;;;;;4460297;32;20080;-74
2022/09/03 12:04:33;;;;;;;1.83;0.82;;;24.30;42.60;;;;;;4460225;32;20164;-73
2022/09/03 12:07:30;;;;;;;2.15;0.63;;;24.30;42.50;;;;;;4460431;32;20092;-74
2022/09/03 12:10:03;;;;;;;1.45;0.70;;;24.30;42.20;;;;;;4460640;32;20081;-74
2022/09/03 12:12:39;;;;;;;6.32;1.23;;;24.30;42.20;;;;;;4460217;32;20095;-74
2022/09/03 12:15:30;;;;;;;3.35;0.73;;;24.30;42.00;;;;;;4460104;32;20143;-74
2022/09/03 12:18:21;;;;;;;3.38;0.68;;;24.30;41.90;;;;;;4460205;32;20085;-74
2022/09/03 12:21:10;;;;;;;1.30;0.80;;;24.30;42.10;;;;;;4461498;32;20093;-73
2022/09/03 12:23:46;;;;;;;1.88;0.70;;;24.30;41.80;;;;;;4463443;32;20478;-73
2022/09/03 12:26:22;;;;;;;3.13;0.77;;;24.40;41.90;;;;;;4449259;32;20198;-74
2022/09/03 12:28:54;;;;;;;2.60;0.70;;;24.40;41.30;;;;;;4463609;32;20100;-77
2022/09/03 12:31:29;;;;;;;2.40;0.90;;;24.40;41.10;;;;;;4463167;32;20078;-74
2022/09/03 12:34:01;;;;;;;0.88;0.60;;;24.40;41.10;;;;;;4462905;32;20091;-74
2022/09/03 12:36:53;;;;;;;2.70;0.80;;;24.40;40.80;;;;;;4462921;32;20109;-74
2022/09/03 12:39:23;;;;;;;3.65;0.80;;;24.40;40.50;;;;;;4463414;32;20074;-74
2022/09/03 12:42:03;;;;;;;4.43;1.00;;;24.40;40.20;;;;;;4462783;32;20495;-74
2022/09/03 12:44:30;;;;;;;4.32;0.68;;;24.40;39.90;;;;;;4462963;32;20220;-73
2022/09/03 12:47:03;;;;;;;3.58;0.80;;;24.40;39.80;;;;;;4463227;32;20282;-74
2022/09/03 12:49:37;;;;;;;2.03;0.70;;;24.40;39.70;;;;;;4463361;32;20085;-74
2022/09/03 12:52:23;;;;;;;1.20;0.60;;;24.40;39.70;;;;;;4462945;32;20692;-73
2022/09/03 12:54:55;;;;;;;2.90;0.57;;;24.40;39.60;;;;;;4462897;32;20089;-73
2022/09/03 12:57:35;;;;;;;3.78;0.68;;;24.40;39.70;;;;;;4463027;32;20098;-73
2022/09/03 13:00:06;;;;;;;2.30;0.60;;;24.40;39.40;;;;;;4462840;32;20492;-74
2022/09/03 13:02:48;;;;;;;2.88;0.88;;;24.40;39.30;;;;;;4463059;32;20109;-73
2022/09/03 13:05:18;;;;;;;1.05;0.65;;;24.40;39.20;;;;;;4462784;32;20105;-73
2022/09/03 13:07:50;;;;;;;3.42;0.88;;;24.40;39.30;;;;;;4448763;32;20073;-73
2022/09/03 13:10:26;;;;;;;1.92;0.63;;;24.40;39.30;;;;;;4462980;32;20132;-73
2022/09/03 13:12:58;;;;;;;2.58;0.70;;;24.40;39.30;;;;;;4462970;32;20434;-73
2022/09/03 13:15:25;;;;;;;3.25;0.70;;;24.40;39.30;;;;;;4462662;32;20066;-73
2022/09/03 13:18:18;;;;;;;3.58;0.65;;;24.40;39.20;;;;;;4462531;32;20078;-73
2022/09/03 13:20:47;;;;;;;3.15;0.88;;;24.30;39.20;;;;;;4462946;32;20144;-73
2022/09/03 13:23:36;;;;;;;6.93;0.90;;;24.30;39.00;;;;;;4462631;32;20203;-74
2022/09/03 13:26:26;;;;;;;2.08;0.70;;;24.30;38.90;;;;;;4462751;32;20073;-73